createdAt,value
2022-12-29T00:00:18.441Z,97397.97
2022-12-29T00:02:45.018Z,97383.41
2022-12-29T00:05:11.706Z,97383.31
2022-12-29T00:07:38.192Z,97373.84
2022-12-29T00:10:05.595Z,97381.50
2022-12-29T00:12:52.081Z,97364.50
2022-12-29T00:15:37.459Z,97372.41
2022-12-29T00:18:04.236Z,97372.63
2022-12-29T00:20:59.530Z,97363.28
2022-12-29T00:23:44.804Z,97370.44
2022-12-29T00:26:35.957Z,97363.34
2022-12-29T00:29:21.315Z,97360.19
2022-12-29T00:32:06.727Z,97358.91
2022-12-29T00:34:52.868Z,97344.00
2022-12-29T00:37:39.481Z,97334.41
2022-12-29T00:40:25.005Z,97333.31
2022-12-29T00:43:10.119Z,97331.06
2022-12-29T00:45:36.624Z,97329.34
2022-12-29T00:48:03.258Z,97326.66
2022-12-29T00:50:29.745Z,97331.16
2022-12-29T00:52:56.269Z,97317.63
2022-12-29T00:55:22.708Z,97321.50
2022-12-29T00:57:49.160Z,97317.81
2022-12-29T01:00:15.769Z,97316.19
2022-12-29T01:02:42.379Z,97326.13
2022-12-29T01:05:09.399Z,97325.38
2022-12-29T01:07:35.870Z,97320.78
2022-12-29T01:10:11.561Z,97320.47
2022-12-29T01:12:41.385Z,97321.19
2022-12-29T01:15:10.930Z,97303.59
2022-12-29T01:17:37.486Z,97303.34
2022-12-29T01:20:05.911Z,97297.84
2022-12-29T01:22:32.469Z,97316.94
2022-12-29T01:24:58.944Z,97317.19
2022-12-29T01:27:25.487Z,97326.63
2022-12-29T01:29:51.984Z,97325.13
2022-12-29T01:32:18.647Z,97317.06
2022-12-29T01:34:45.190Z,97319.88
2022-12-29T01:37:12.371Z,97308.53
2022-12-29T01:39:38.981Z,97310.28
2022-12-29T01:42:05.945Z,97316.69
2022-12-29T01:44:53.343Z,97313.03
2022-12-29T01:47:37.388Z,97318.41
2022-12-29T01:50:29.532Z,97328.25
2022-12-29T01:53:33.580Z,97326.94
2022-12-29T01:56:08.396Z,97306.06
2022-12-29T01:58:40.669Z,97313.38
2022-12-29T02:01:07.508Z,97312.41
2022-12-29T02:03:36.563Z,97310.81
2022-12-29T02:06:13.027Z,97301.13
2022-12-29T02:08:41.821Z,97306.06
2022-12-29T02:11:08.775Z,97303.28
2022-12-29T02:13:35.607Z,97303.09
2022-12-29T02:16:56.040Z,97284.13
2022-12-29T02:20:10.972Z,97292.47
2022-12-29T02:23:09.452Z,97294.34
2022-12-29T02:25:55.641Z,97295.44
2022-12-29T02:28:55.432Z,97281.31
2022-12-29T02:31:55.705Z,97287.66
2022-12-29T02:34:35.990Z,97281.72
2022-12-29T02:37:31.936Z,97287.56
2022-12-29T02:40:18.453Z,97280.66
2022-12-29T02:42:52.248Z,97280.09
2022-12-29T02:45:44.768Z,97275.31
2022-12-29T02:48:25.521Z,97283.44
2022-12-29T02:51:21.809Z,97275.81
2022-12-29T02:54:08.103Z,97271.56
2022-12-29T02:56:34.607Z,97272.53
2022-12-29T02:59:01.280Z,97261.03
2022-12-29T03:02:13.831Z,97266.84
2022-12-29T03:04:59.477Z,97262.66
2022-12-29T03:07:49.681Z,97272.47
2022-12-29T03:10:49.809Z,97269.25
2022-12-29T03:14:32.846Z,97263.28
2022-12-29T03:17:15.890Z,97263.84
2022-12-29T03:19:52.193Z,97261.75
2022-12-29T03:22:28.901Z,97261.59
2022-12-29T03:25:02.107Z,97264.63
2022-12-29T03:27:35.832Z,97265.91
2022-12-29T03:30:06.603Z,97259.03
2022-12-29T03:32:43.496Z,97253.13
2022-12-29T03:35:15.707Z,97250.09
2022-12-29T03:37:56.724Z,97243.28
2022-12-29T03:40:27.107Z,97239.97
2022-12-29T03:42:55.422Z,97241.78
2022-12-29T03:45:21.994Z,97240.59
2022-12-29T03:47:48.738Z,97242.25
2022-12-29T03:50:15.580Z,97243.59
2022-12-29T03:52:42.081Z,97239.88
2022-12-29T03:55:09.233Z,97236.00
2022-12-29T03:57:35.781Z,97227.25
2022-12-29T04:00:04.951Z,97241.13
2022-12-29T04:02:31.802Z,97229.63
2022-12-29T04:04:58.425Z,97239.97
2022-12-29T04:07:24.928Z,97241.25
2022-12-29T04:09:51.879Z,97236.84
2022-12-29T04:12:18.441Z,97240.84
2022-12-29T04:14:44.903Z,97243.34
2022-12-29T04:17:11.340Z,97238.91
2022-12-29T04:19:37.849Z,97243.91
2022-12-29T04:22:04.392Z,97237.66
2022-12-29T04:24:30.859Z,97235.44
2022-12-29T04:26:57.351Z,97233.78
2022-12-29T04:29:23.997Z,97240.03
2022-12-29T04:31:50.485Z,97243.59
2022-12-29T04:34:17.189Z,97242.22
2022-12-29T04:36:45.006Z,97243.91
2022-12-29T04:39:11.577Z,97246.38
2022-12-29T04:41:38.102Z,97243.50
2022-12-29T04:44:04.581Z,97254.59
2022-12-29T04:46:31.155Z,97246.06
2022-12-29T04:48:57.747Z,97240.56
2022-12-29T04:51:24.377Z,97231.56
2022-12-29T04:53:50.807Z,97224.75
2022-12-29T04:56:17.340Z,97225.16
2022-12-29T04:58:45.007Z,97224.19
2022-12-29T05:01:11.493Z,97218.09
2022-12-29T05:03:38.073Z,97227.22
2022-12-29T05:06:04.630Z,97217.38
2022-12-29T05:08:31.196Z,97211.03
2022-12-29T05:10:58.524Z,97202.84
2022-12-29T05:13:25.111Z,97207.16
2022-12-29T05:15:53.868Z,97215.75
2022-12-29T05:18:20.998Z,97232.75
2022-12-29T05:20:48.510Z,97211.56
2022-12-29T05:23:16.423Z,97196.59
2022-12-29T05:25:46.221Z,97200.63
2022-12-29T05:28:13.748Z,97219.44
2022-12-29T05:30:41.303Z,97236.78
2022-12-29T05:33:07.789Z,97208.06
2022-12-29T05:35:34.354Z,97213.03
2022-12-29T05:38:00.863Z,97213.88
2022-12-29T05:40:27.399Z,97215.38
2022-12-29T05:42:53.925Z,97218.84
2022-12-29T05:45:20.368Z,97223.22
2022-12-29T05:47:46.852Z,97232.47
2022-12-29T05:50:13.418Z,97221.56
2022-12-29T05:52:40.528Z,97231.53
2022-12-29T05:55:08.010Z,97227.00
2022-12-29T05:57:34.458Z,97215.59
2022-12-29T06:00:01.055Z,97225.34
2022-12-29T06:02:27.707Z,97220.75
2022-12-29T06:04:54.263Z,97227.56
2022-12-29T06:07:20.779Z,97232.94
2022-12-29T06:09:47.347Z,97226.28
2022-12-29T06:12:13.949Z,97228.91
2022-12-29T06:14:40.672Z,97227.25
2022-12-29T06:17:07.254Z,97225.50
2022-12-29T06:19:33.696Z,97227.16
2022-12-29T06:22:00.205Z,97236.06
2022-12-29T06:24:26.730Z,97230.22
2022-12-29T06:26:53.265Z,97224.44
2022-12-29T06:29:21.422Z,97225.13
2022-12-29T06:31:48.006Z,97231.94
2022-12-29T06:34:14.550Z,97226.16
2022-12-29T06:36:41.794Z,97223.47
2022-12-29T06:39:08.334Z,97219.19
2022-12-29T06:41:34.827Z,97230.22
2022-12-29T06:44:01.326Z,97225.94
2022-12-29T06:46:27.873Z,97219.59
2022-12-29T06:48:54.350Z,97225.44
2022-12-29T06:51:20.925Z,97214.78
2022-12-29T06:53:47.390Z,97225.75
2022-12-29T06:56:14.006Z,97226.81
2022-12-29T06:58:40.554Z,97214.09
2022-12-29T07:01:07.191Z,97216.00
2022-12-29T07:03:33.924Z,97215.56
2022-12-29T07:06:00.536Z,97223.88
2022-12-29T07:08:27.042Z,97225.00
2022-12-29T07:10:53.541Z,97220.06
2022-12-29T07:13:20.119Z,97225.03
2022-12-29T07:15:46.695Z,97236.94
2022-12-29T07:18:13.204Z,97237.50
2022-12-29T07:20:39.740Z,97238.34
2022-12-29T07:23:06.501Z,97246.69
2022-12-29T07:25:33.161Z,97252.13
2022-12-29T07:27:59.611Z,97257.09
2022-12-29T07:30:26.175Z,97250.16
2022-12-29T07:32:52.631Z,97266.06
2022-12-29T07:35:19.157Z,97255.81
2022-12-29T07:37:45.706Z,97272.84
2022-12-29T07:40:13.715Z,97298.16
2022-12-29T07:42:40.799Z,97299.53
2022-12-29T07:45:08.353Z,97304.47
2022-12-29T07:47:34.843Z,97313.75
2022-12-29T07:50:01.512Z,97280.81
2022-12-29T07:52:27.991Z,97278.16
2022-12-29T07:54:54.477Z,97288.91
2022-12-29T07:57:23.901Z,97311.13
2022-12-29T07:59:54.541Z,97313.75
2022-12-29T08:02:21.183Z,97281.81
2022-12-29T08:04:47.768Z,97298.47
2022-12-29T08:07:14.231Z,97306.41
2022-12-29T08:09:40.794Z,97313.09
2022-12-29T08:12:10.741Z,97318.06
2022-12-29T08:14:37.681Z,97311.19
2022-12-29T08:17:04.339Z,97310.22
2022-12-29T08:19:30.891Z,97324.53
2022-12-29T08:21:57.459Z,97332.41
2022-12-29T08:24:23.951Z,97336.47
2022-12-29T08:26:50.657Z,97332.75
2022-12-29T08:29:17.721Z,97352.22
2022-12-29T08:31:44.380Z,97350.72
2022-12-29T08:34:11.368Z,97354.44
2022-12-29T08:36:37.845Z,97360.84
2022-12-29T08:39:04.516Z,97357.50
2022-12-29T08:41:31.020Z,97374.25
2022-12-29T08:43:57.677Z,97376.38
2022-12-29T08:46:24.272Z,97368.50
2022-12-29T08:48:50.846Z,97366.97
2022-12-29T08:51:22.783Z,97379.53
2022-12-29T08:53:51.584Z,97376.09
2022-12-29T08:56:18.253Z,97365.31
2022-12-29T08:58:44.749Z,97370.31
2022-12-29T09:01:11.732Z,97366.72
2022-12-29T09:04:13.082Z,97377.50
2022-12-29T09:06:25.353Z,97375.69
2022-12-29T09:08:55.766Z,97377.25
2022-12-29T09:11:26.010Z,97381.03
2022-12-29T09:13:54.393Z,97381.69
2022-12-29T09:16:23.898Z,97371.00
2022-12-29T09:18:51.384Z,97373.13
2022-12-29T09:21:18.024Z,97364.81
2022-12-29T09:23:44.503Z,97367.09
2022-12-29T09:26:11.101Z,97374.03
2022-12-29T09:28:37.693Z,97377.44
2022-12-29T09:31:04.369Z,97383.91
2022-12-29T09:33:31.108Z,97383.91
2022-12-29T09:35:59.113Z,97388.84
2022-12-29T09:38:27.499Z,97389.53
2022-12-29T09:41:18.541Z,97398.50
2022-12-29T09:44:04.413Z,97389.63
2022-12-29T09:46:44.565Z,97395.22
2022-12-29T09:49:32.245Z,97394.97
2022-12-29T09:52:12.225Z,97407.41
2022-12-29T09:54:57.981Z,97406.63
2022-12-29T09:57:42.997Z,97402.72
2022-12-29T10:00:21.464Z,97408.56
2022-12-29T10:03:08.552Z,97414.59
2022-12-29T10:05:46.349Z,97416.59
2022-12-29T10:08:38.127Z,97408.50
2022-12-29T10:11:24.979Z,97414.66
2022-12-29T10:14:18.450Z,97421.63
2022-12-29T10:17:04.426Z,97412.31
2022-12-29T10:19:56.505Z,97418.63
2022-12-29T10:22:35.886Z,97425.81
2022-12-29T10:25:12.011Z,97425.94
2022-12-29T10:27:41.083Z,97430.81
2022-12-29T10:30:14.483Z,97428.25
2022-12-29T10:32:51.252Z,97439.94
2022-12-29T10:35:26.467Z,97431.22
2022-12-29T10:38:26.377Z,97438.28
2022-12-29T10:40:59.484Z,97439.97
2022-12-29T10:43:30.575Z,97434.34
2022-12-29T10:46:14.291Z,97438.47
2022-12-29T10:48:40.837Z,97439.09
2022-12-29T10:51:09.575Z,97431.13
2022-12-29T10:54:47.094Z,97442.50
2022-12-29T10:57:32.603Z,97439.09
2022-12-29T10:59:59.736Z,97438.78
2022-12-29T11:02:26.202Z,97434.47
2022-12-29T11:05:12.093Z,97447.19
2022-12-29T11:07:40.113Z,97435.81
2022-12-29T11:10:41.801Z,97431.63
2022-12-29T11:13:17.531Z,97430.81
2022-12-29T11:15:49.980Z,97435.00
2022-12-29T11:18:47.720Z,97432.63
2022-12-29T11:21:41.257Z,97431.19
2022-12-29T11:24:30.650Z,97433.06
2022-12-29T11:27:17.415Z,97431.53
2022-12-29T11:29:46.572Z,97450.53
2022-12-29T11:32:29.087Z,97439.59
2022-12-29T11:35:01.873Z,97446.84
2022-12-29T11:37:37.144Z,97452.34
2022-12-29T11:40:17.003Z,97447.44
2022-12-29T11:42:57.634Z,97435.03
2022-12-29T11:45:28.880Z,97440.88
2022-12-29T11:48:08.812Z,97439.66
2022-12-29T11:50:41.200Z,97438.56
2022-12-29T11:53:36.837Z,97435.56
2022-12-29T11:56:35.377Z,97446.94
2022-12-29T11:59:40.279Z,97444.44
2022-12-29T12:02:43.699Z,97443.31
2022-12-29T12:05:28.094Z,97447.84
2022-12-29T12:08:20.778Z,97447.84
2022-12-29T12:10:59.820Z,97446.50
2022-12-29T12:13:53.277Z,97436.19
2022-12-29T12:16:28.189Z,97451.09
2022-12-29T12:19:04.007Z,97444.84
2022-12-29T12:21:45.358Z,97445.31
2022-12-29T12:24:45.226Z,97438.13
2022-12-29T12:27:43.439Z,97445.25
2022-12-29T12:30:20.188Z,97459.47
2022-12-29T12:32:55.908Z,97441.84
2022-12-29T12:35:27.961Z,97457.50
2022-12-29T12:38:32.364Z,97454.78
2022-12-29T12:41:21.290Z,97460.13
2022-12-29T12:44:04.521Z,97468.88
2022-12-29T12:47:24.660Z,97468.50
2022-12-29T12:50:27.378Z,97473.88
2022-12-29T12:53:27.019Z,97464.50
2022-12-29T12:56:35.597Z,97471.56
2022-12-29T12:59:54.731Z,97476.13
2022-12-29T13:02:45.776Z,97472.72
2022-12-29T13:05:55.621Z,97481.31
2022-12-29T13:08:49.957Z,97475.69
2022-12-29T13:11:35.992Z,97474.06
2022-12-29T13:14:53.043Z,97487.81
2022-12-29T13:17:44.067Z,97486.19
2022-12-29T13:20:46.494Z,97483.31
2022-12-29T13:23:42.998Z,97475.44
2022-12-29T13:26:20.265Z,97482.34
2022-12-29T13:29:14.749Z,97489.66
2022-12-29T13:32:10.623Z,97486.63
2022-12-29T13:35:44.645Z,97490.53
2022-12-29T13:38:25.529Z,97497.13
2022-12-29T13:41:01.557Z,97496.06
2022-12-29T13:43:32.615Z,97492.34
2022-12-29T13:46:25.894Z,97486.53
2022-12-29T13:49:05.892Z,97493.22
2022-12-29T13:51:35.340Z,97490.47
2022-12-29T13:54:40.734Z,97492.47
2022-12-29T13:57:27.879Z,97489.31
2022-12-29T14:00:13.173Z,97496.78
2022-12-29T14:02:45.981Z,97498.34
2022-12-29T14:05:21.667Z,97502.47
2022-12-29T14:07:57.427Z,97503.00
2022-12-29T14:10:34.416Z,97511.28
2022-12-29T14:13:11.329Z,97518.09
2022-12-29T14:15:42.422Z,97512.25
2022-12-29T14:18:13.418Z,97510.00
2022-12-29T14:21:01.014Z,97512.84
2022-12-29T14:23:47.594Z,97527.63
2022-12-29T14:26:33.145Z,97526.19
2022-12-29T14:29:24.599Z,97530.41
2022-12-29T14:31:53.370Z,97535.16
2022-12-29T14:34:22.932Z,97531.41
2022-12-29T14:37:01.008Z,97536.47
2022-12-29T14:39:43.996Z,97530.63
2022-12-29T14:42:10.418Z,97537.59
2022-12-29T14:45:25.293Z,97537.47
2022-12-29T14:47:54.611Z,97554.34
2022-12-29T14:50:37.957Z,97553.25
2022-12-29T14:53:07.379Z,97547.41
2022-12-29T14:55:48.143Z,97552.31
2022-12-29T14:58:46.172Z,97549.44
2022-12-29T15:01:46.133Z,97554.94
2022-12-29T15:04:31.322Z,97547.94
2022-12-29T15:07:00.273Z,97545.19
2022-12-29T15:09:41.341Z,97541.13
2022-12-29T15:12:26.558Z,97546.41
2022-12-29T15:14:56.759Z,97537.06
2022-12-29T15:17:33.752Z,97541.38
2022-12-29T15:20:15.763Z,97552.59
2022-12-29T15:22:49.541Z,97558.09
2022-12-29T15:25:18.523Z,97559.88
2022-12-29T15:27:52.565Z,97569.91
2022-12-29T15:30:19.866Z,97571.69
2022-12-29T15:32:49.340Z,97575.66
2022-12-29T15:35:32.294Z,97584.25
2022-12-29T15:38:00.514Z,97571.69
2022-12-29T15:40:31.439Z,97575.28
2022-12-29T15:43:33.728Z,97589.50
2022-12-29T15:46:03.160Z,97589.28
2022-12-29T15:48:31.786Z,97591.81
2022-12-29T15:50:59.573Z,97588.06
2022-12-29T15:53:32.883Z,97585.69
2022-12-29T15:56:11.693Z,97591.22
2022-12-29T15:58:51.440Z,97586.63
2022-12-29T16:01:33.805Z,97583.09
2022-12-29T16:04:10.006Z,97587.25
2022-12-29T16:06:40.093Z,97587.00
2022-12-29T16:09:30.802Z,97598.84
2022-12-29T16:12:04.544Z,97609.47
2022-12-29T16:14:35.199Z,97602.44
2022-12-29T16:17:07.524Z,97618.53
2022-12-29T16:19:41.642Z,97623.06
2022-12-29T16:22:21.240Z,97637.59
2022-12-29T16:24:47.817Z,97633.78
2022-12-29T16:27:26.482Z,97624.94
2022-12-29T16:29:56.303Z,97622.56
2022-12-29T16:32:32.399Z,97626.38
2022-12-29T16:35:27.881Z,97629.34
2022-12-29T16:38:16.258Z,97622.28
2022-12-29T16:40:55.449Z,97625.81
2022-12-29T16:43:26.854Z,97627.97
2022-12-29T16:45:53.290Z,97624.53
2022-12-29T16:48:24.486Z,97625.16
2022-12-29T16:50:51.286Z,97621.94
2022-12-29T16:53:34.177Z,97622.09
2022-12-29T16:56:27.982Z,97627.91
2022-12-29T16:59:08.563Z,97645.31
2022-12-29T17:01:41.578Z,97652.72
2022-12-29T17:04:14.111Z,97643.28
2022-12-29T17:06:42.000Z,97644.53
2022-12-29T17:09:21.454Z,97655.75
2022-12-29T17:12:00.535Z,97648.78
2022-12-29T17:14:46.253Z,97655.41
2022-12-29T17:17:14.883Z,97663.50
2022-12-29T17:19:47.601Z,97666.59
2022-12-29T17:22:21.471Z,97662.84
2022-12-29T17:24:48.031Z,97666.53
2022-12-29T17:27:30.330Z,97676.06
2022-12-29T17:30:03.365Z,97673.50
2022-12-29T17:32:30.588Z,97673.00
2022-12-29T17:34:57.198Z,97678.97
2022-12-29T17:37:23.682Z,97683.16
2022-12-29T17:39:50.579Z,97690.47
2022-12-29T17:42:20.037Z,97691.09
2022-12-29T17:44:47.700Z,97701.97
2022-12-29T17:47:15.754Z,97688.53
2022-12-29T17:49:46.067Z,97691.78
2022-12-29T17:52:15.872Z,97700.47
2022-12-29T17:54:53.078Z,97706.16
2022-12-29T17:57:21.336Z,97700.50
2022-12-29T17:59:48.101Z,97698.00
2022-12-29T18:02:32.761Z,97701.41
2022-12-29T18:04:59.717Z,97714.19
2022-12-29T18:07:35.440Z,97710.84
2022-12-29T18:10:02.659Z,97708.56
2022-12-29T18:12:41.035Z,97707.09
2022-12-29T18:15:34.679Z,97710.06
2022-12-29T18:18:12.884Z,97708.50
2022-12-29T18:20:41.322Z,97709.88
2022-12-29T18:23:20.592Z,97715.31
2022-12-29T18:26:05.533Z,97714.91
2022-12-29T18:28:32.081Z,97720.66
2022-12-29T18:31:01.564Z,97718.25
2022-12-29T18:33:29.892Z,97720.97
2022-12-29T18:36:05.474Z,97720.47
2022-12-29T18:38:31.944Z,97719.31
2022-12-29T18:41:00.005Z,97722.16
2022-12-29T18:43:26.481Z,97727.38
2022-12-29T18:45:53.078Z,97723.59
2022-12-29T18:48:21.044Z,97733.47
2022-12-29T18:50:53.245Z,97742.59
2022-12-29T18:53:25.092Z,97742.94
2022-12-29T18:55:53.010Z,97728.78
2022-12-29T18:58:19.820Z,97739.06
2022-12-29T19:00:47.026Z,97741.97
2022-12-29T19:03:16.983Z,97741.44
2022-12-29T19:05:46.933Z,97746.25
2022-12-29T19:08:13.926Z,97741.66
2022-12-29T19:10:41.966Z,97739.97
2022-12-29T19:13:17.188Z,97738.19
2022-12-29T19:15:46.302Z,97735.19
2022-12-29T19:21:08.942Z,97731.72
2022-12-29T19:23:35.446Z,97734.88
2022-12-29T19:26:01.972Z,97739.78
2022-12-29T19:28:29.003Z,97746.50
2022-12-29T19:31:00.660Z,97741.97
2022-12-29T19:33:28.158Z,97741.38
2022-12-29T19:36:00.754Z,97742.41
2022-12-29T19:38:27.371Z,97739.47
2022-12-29T19:40:53.961Z,97740.00
2022-12-29T19:43:20.646Z,97743.22
2022-12-29T19:45:47.184Z,97755.81
2022-12-29T19:48:20.685Z,97747.13
2022-12-29T19:50:47.790Z,97753.44
2022-12-29T19:53:15.643Z,97754.34
2022-12-29T19:55:44.363Z,97760.41
2022-12-29T19:58:11.281Z,97763.34
2022-12-29T20:00:43.273Z,97768.19
2022-12-29T20:03:10.877Z,97772.81
2022-12-29T20:05:39.531Z,97771.34
2022-12-29T20:08:06.320Z,97781.50
2022-12-29T20:10:33.060Z,97780.03
2022-12-29T20:12:59.652Z,97787.91
2022-12-29T20:15:29.123Z,97791.25
2022-12-29T20:18:12.916Z,97788.53
2022-12-29T20:20:41.120Z,97792.41
2022-12-29T20:23:07.704Z,97796.69
2022-12-29T20:25:44.596Z,97806.47
2022-12-29T20:28:12.873Z,97814.31
2022-12-29T20:30:39.539Z,97805.81
2022-12-29T20:33:08.368Z,97806.16
2022-12-29T20:35:36.497Z,97816.81
2022-12-29T20:38:03.855Z,97816.41
2022-12-29T20:40:30.416Z,97820.50
2022-12-29T20:42:56.866Z,97823.31
2022-12-29T20:45:23.454Z,97817.97
2022-12-29T20:47:50.158Z,97823.16
2022-12-29T20:50:16.746Z,97817.66
2022-12-29T20:52:43.246Z,97829.00
2022-12-29T20:55:09.921Z,97829.19
2022-12-29T20:58:13.649Z,97836.13
2022-12-29T21:00:23.131Z,97837.25
2022-12-29T21:02:50.243Z,97840.47
2022-12-29T21:05:25.492Z,97842.34
2022-12-29T21:07:54.099Z,97847.16
2022-12-29T21:10:21.898Z,97849.88
2022-12-29T21:12:48.768Z,97857.66
2022-12-29T21:15:16.125Z,97863.91
2022-12-29T21:17:44.254Z,97866.47
2022-12-29T21:20:29.910Z,97866.38
2022-12-29T21:22:57.390Z,97862.78
2022-12-29T21:25:24.201Z,97861.56
2022-12-29T21:27:50.780Z,97867.31
2022-12-29T21:30:18.054Z,97864.75
2022-12-29T21:32:44.620Z,97868.28
2022-12-29T21:35:11.144Z,97870.06
2022-12-29T21:37:37.692Z,97862.81
2022-12-29T21:40:05.630Z,97862.94
2022-12-29T21:42:32.191Z,97872.69
2022-12-29T21:45:20.668Z,97868.16
2022-12-29T21:48:07.414Z,97870.53
2022-12-29T21:50:57.710Z,97864.56
2022-12-29T21:53:37.526Z,97867.28
2022-12-29T21:56:11.323Z,97869.44
2022-12-29T21:58:59.317Z,97876.94
2022-12-29T22:01:46.749Z,97879.56
2022-12-29T22:04:34.508Z,97888.53
2022-12-29T22:07:22.424Z,97890.09
2022-12-29T22:10:07.682Z,97896.63
2022-12-29T22:12:54.002Z,97893.09
2022-12-29T22:15:21.413Z,97896.38
2022-12-29T22:17:54.062Z,97897.94
2022-12-29T22:20:27.219Z,97899.75
2022-12-29T22:22:54.038Z,97903.09
2022-12-29T22:25:21.259Z,97902.44
2022-12-29T22:27:52.880Z,97898.59
2022-12-29T22:30:20.974Z,97898.94
2022-12-29T22:32:47.513Z,97900.13
2022-12-29T22:35:14.691Z,97904.75
2022-12-29T22:37:45.344Z,97916.94
2022-12-29T22:40:12.508Z,97915.38
2022-12-29T22:42:39.823Z,97923.81
2022-12-29T22:45:08.007Z,97921.94
2022-12-29T22:47:34.885Z,97921.59
2022-12-29T22:50:01.519Z,97919.53
2022-12-29T22:52:28.246Z,97922.13
2022-12-29T22:54:54.823Z,97925.16
2022-12-29T22:57:21.567Z,97921.34
2022-12-29T22:59:48.158Z,97926.75
2022-12-29T23:02:14.790Z,97939.09
2022-12-29T23:07:27.770Z,97937.63
2022-12-29T23:09:54.301Z,97924.66
2022-12-29T23:12:20.825Z,97925.97
2022-12-29T23:14:47.308Z,97943.78
2022-12-29T23:17:13.807Z,97936.47
2022-12-29T23:19:40.277Z,97935.44
2022-12-29T23:22:06.802Z,97939.91
2022-12-29T23:24:33.314Z,97942.72
2022-12-29T23:26:59.781Z,97950.31
2022-12-29T23:29:26.276Z,97954.88
2022-12-29T23:31:52.837Z,97955.06
2022-12-29T23:34:19.402Z,97970.28
2022-12-29T23:36:46.632Z,97964.97
2022-12-29T23:39:26.091Z,97972.06
2022-12-29T23:41:53.033Z,97978.47
2022-12-29T23:44:19.599Z,97976.28
2022-12-29T23:46:46.280Z,97983.28
2022-12-29T23:49:12.804Z,97988.91
2022-12-29T23:51:39.461Z,97992.88
2022-12-29T23:54:06.081Z,98002.41
2022-12-29T23:56:33.251Z,98002.91
2022-12-29T23:59:03.333Z,98011.56
